createdAt,value
2019-02-07T00:01:42.089Z,6.70
2019-02-07T00:04:10.737Z,7.30
2019-02-07T00:06:38.553Z,7.60
2019-02-07T00:09:09.085Z,8.00
2019-02-07T00:11:37.570Z,8.30
2019-02-07T00:14:06.357Z,8.00
2019-02-07T00:16:34.835Z,7.80
2019-02-07T00:19:03.567Z,7.90
2019-02-07T00:21:31.741Z,7.40
2019-02-07T00:23:59.967Z,7.20
2019-02-07T00:26:28.249Z,5.90
2019-02-07T00:28:56.482Z,6.60
2019-02-07T00:31:24.901Z,6.90
2019-02-07T00:33:53.053Z,6.80
2019-02-07T00:36:21.879Z,6.10
2019-02-07T00:38:50.042Z,5.20
2019-02-07T00:41:19.649Z,6.00
2019-02-07T00:43:47.729Z,5.70
2019-02-07T00:46:17.342Z,5.50
2019-02-07T00:48:46.725Z,5.20
2019-02-07T00:51:15.115Z,4.90
2019-02-07T00:53:43.431Z,3.60
2019-02-07T00:56:11.512Z,4.50
2019-02-07T00:58:39.757Z,4.10
2019-02-07T01:01:08.347Z,3.70
2019-02-07T01:03:37.128Z,3.50
2019-02-07T01:06:05.686Z,5.00
2019-02-07T01:08:34.711Z,5.60
2019-02-07T01:11:02.255Z,4.50
2019-02-07T01:13:30.757Z,4.60
2019-02-07T01:15:58.998Z,5.20
2019-02-07T01:18:26.662Z,5.70
2019-02-07T01:20:55.481Z,5.80
2019-02-07T01:23:25.521Z,6.90
2019-02-07T01:25:53.029Z,7.00
2019-02-07T01:28:21.774Z,7.50
2019-02-07T01:30:50.642Z,8.30
2019-02-07T01:33:19.511Z,10.20
2019-02-07T01:35:48.077Z,10.30
2019-02-07T01:38:17.478Z,11.20
2019-02-07T01:40:46.133Z,12.10
2019-02-07T01:43:14.655Z,12.80
2019-02-07T01:45:42.921Z,13.70
2019-02-07T01:48:12.335Z,15.20
2019-02-07T01:50:40.910Z,16.70
2019-02-07T01:53:08.188Z,19.00
2019-02-07T01:55:36.650Z,20.10
2019-02-07T01:58:05.646Z,22.30
2019-02-07T02:00:33.972Z,23.70
2019-02-07T02:03:03.014Z,24.90
2019-02-07T02:05:31.097Z,27.50
2019-02-07T02:07:59.979Z,27.90
2019-02-07T02:10:28.973Z,29.60
2019-02-07T02:12:57.033Z,31.10
2019-02-07T02:15:25.677Z,32.80
2019-02-07T02:17:53.947Z,38.20
2019-02-07T02:20:22.918Z,41.10
2019-02-07T02:22:52.298Z,44.80
2019-02-07T02:25:21.219Z,48.20
2019-02-07T02:27:49.821Z,49.20
2019-02-07T02:30:21.264Z,51.40
2019-02-07T02:32:49.675Z,53.20
2019-02-07T02:35:19.110Z,54.30
2019-02-07T02:37:47.590Z,58.10
2019-02-07T02:40:16.134Z,60.20
2019-02-07T02:42:44.959Z,61.60
2019-02-07T02:45:14.207Z,61.30
2019-02-07T02:47:42.677Z,60.00
2019-02-07T02:50:13.662Z,58.90
2019-02-07T02:52:42.267Z,60.10
2019-02-07T02:55:11.874Z,58.20
2019-02-07T02:57:40.407Z,57.80
2019-02-07T03:00:15.046Z,57.40
2019-02-07T03:03:03.521Z,58.30
2019-02-07T03:05:59.323Z,58.20
2019-02-07T03:08:46.191Z,58.40
2019-02-07T03:11:31.626Z,59.70
2019-02-07T03:14:21.277Z,61.60
2019-02-07T03:16:56.911Z,62.60
2019-02-07T03:19:50.888Z,65.30
2019-02-07T03:22:46.904Z,67.70
2019-02-07T03:25:32.437Z,71.30
2019-02-07T03:28:22.246Z,72.30
2019-02-07T03:31:03.560Z,74.60
2019-02-07T03:33:56.223Z,74.60
2019-02-07T03:36:38.502Z,75.50
2019-02-07T03:39:26.278Z,76.80
2019-02-07T03:42:16.562Z,76.20
2019-02-07T03:45:07.326Z,76.40
2019-02-07T03:47:42.286Z,75.00
2019-02-07T03:50:29.232Z,74.80
2019-02-07T03:53:22.062Z,75.00
2019-02-07T03:56:10.369Z,74.60
2019-02-07T03:58:55.230Z,73.80
2019-02-07T04:01:42.153Z,75.70
2019-02-07T04:04:34.716Z,75.90
2019-02-07T04:07:19.471Z,75.70
2019-02-07T04:10:05.885Z,75.90
2019-02-07T04:12:51.203Z,76.20
2019-02-07T04:15:47.240Z,74.40
2019-02-07T04:18:25.118Z,75.00
2019-02-07T04:21:06.572Z,74.30
2019-02-07T04:23:53.293Z,73.90
2019-02-07T04:26:38.826Z,73.20
2019-02-07T04:29:27.299Z,72.70
2019-02-07T04:32:29.075Z,71.40
2019-02-07T04:35:15.903Z,71.00
2019-02-07T04:38:11.732Z,71.80
2019-02-07T04:41:10.602Z,70.40
2019-02-07T04:43:56.208Z,68.90
2019-02-07T04:46:49.080Z,69.90
2019-02-07T04:49:41.867Z,69.30
2019-02-07T04:52:28.948Z,69.60
2019-02-07T04:55:07.986Z,67.30
2019-02-07T04:58:01.306Z,68.10
2019-02-07T05:00:46.034Z,68.50
2019-02-07T05:03:38.471Z,67.90
2019-02-07T05:06:30.855Z,69.10
2019-02-07T05:09:30.605Z,68.20
2019-02-07T05:12:18.062Z,68.60
2019-02-07T05:15:01.506Z,69.00
2019-02-07T05:17:48.066Z,68.10
2019-02-07T05:20:34.866Z,68.20
2019-02-07T05:23:39.920Z,67.90
2019-02-07T05:26:32.991Z,67.70
2019-02-07T05:29:09.035Z,68.30
2019-02-07T05:31:55.699Z,70.50
2019-02-07T05:34:41.859Z,71.10
2019-02-07T05:37:29.614Z,70.60
2019-02-07T05:40:14.350Z,69.80
2019-02-07T05:43:01.054Z,70.10
2019-02-07T05:45:47.168Z,71.80
2019-02-07T05:48:44.502Z,73.00
2019-02-07T05:51:37.431Z,73.90
2019-02-07T05:54:18.442Z,73.50
2019-02-07T05:57:11.283Z,75.80
2019-02-07T05:59:57.377Z,75.50
2019-02-07T06:02:43.017Z,74.90
2019-02-07T06:05:32.536Z,72.90
2019-02-07T06:08:25.186Z,69.90
2019-02-07T06:11:16.940Z,69.80
2019-02-07T06:14:07.519Z,69.00
2019-02-07T06:17:02.287Z,69.10
2019-02-07T06:19:35.029Z,68.60
2019-02-07T06:22:37.270Z,67.80
2019-02-07T06:25:23.779Z,67.30
2019-02-07T06:28:14.881Z,66.90
2019-02-07T06:31:04.922Z,66.30
2019-02-07T06:33:51.885Z,64.60
2019-02-07T06:36:34.701Z,63.60
2019-02-07T06:39:09.555Z,63.80
2019-02-07T06:41:59.343Z,63.70
2019-02-07T06:44:54.827Z,63.10
2019-02-07T06:47:42.878Z,62.00
2019-02-07T06:50:36.910Z,61.10
2019-02-07T06:53:28.553Z,61.70
2019-02-07T06:56:26.550Z,62.20
2019-02-07T06:59:07.957Z,61.60
2019-02-07T07:01:59.457Z,61.20
2019-02-07T07:04:45.681Z,62.50
2019-02-07T07:07:45.833Z,62.40
2019-02-07T07:10:32.995Z,63.60
2019-02-07T07:13:26.209Z,66.70
2019-02-07T07:16:23.164Z,68.30
2019-02-07T07:19:08.787Z,67.80
2019-02-07T07:21:48.551Z,68.50
2019-02-07T07:24:35.778Z,69.00
2019-02-07T07:27:23.419Z,68.80
2019-02-07T07:30:11.225Z,67.40
2019-02-07T07:32:59.330Z,69.10
2019-02-07T07:35:56.829Z,69.70
2019-02-07T07:38:46.893Z,68.30
2019-02-07T07:41:25.343Z,68.60
2019-02-07T07:44:22.099Z,66.90
2019-02-07T07:47:04.289Z,68.90
2019-02-07T07:49:54.071Z,69.70
2019-02-07T07:52:32.477Z,70.90
2019-02-07T07:55:10.880Z,72.70
2019-02-07T07:58:00.450Z,73.80
2019-02-07T08:01:06.618Z,76.50
2019-02-07T08:03:42.986Z,78.60
2019-02-07T08:06:30.099Z,80.60
2019-02-07T08:09:07.774Z,81.70
2019-02-07T08:12:05.354Z,84.20
2019-02-07T08:14:59.438Z,83.30
2019-02-07T08:17:47.477Z,83.30
2019-02-07T08:20:30.548Z,86.60
2019-02-07T08:23:27.882Z,87.90
2019-02-07T08:26:13.394Z,88.00
2019-02-07T08:28:53.142Z,90.20
2019-02-07T08:31:38.638Z,91.00
2019-02-07T08:34:27.070Z,90.60
2019-02-07T08:37:18.633Z,90.40
2019-02-07T08:40:04.542Z,90.20
2019-02-07T08:42:52.336Z,88.20
2019-02-07T08:45:39.174Z,88.90
2019-02-07T08:48:44.050Z,87.60
2019-02-07T08:51:31.131Z,86.80
2019-02-07T08:54:25.416Z,86.20
2019-02-07T08:57:12.842Z,85.50
2019-02-07T09:00:05.912Z,85.80
2019-02-07T09:03:01.423Z,85.90
2019-02-07T09:06:00.838Z,85.00
2019-02-07T09:08:51.111Z,87.10
2019-02-07T09:11:37.378Z,86.10
2019-02-07T09:14:22.548Z,85.90
2019-02-07T09:17:08.518Z,87.70
2019-02-07T09:19:53.833Z,88.00
2019-02-07T09:22:44.147Z,90.30
2019-02-07T09:25:27.275Z,90.30
2019-02-07T09:28:08.238Z,90.10
2019-02-07T09:30:55.265Z,90.30
2019-02-07T09:33:45.049Z,89.90
2019-02-07T09:36:38.560Z,91.10
2019-02-07T09:39:27.579Z,91.00
2019-02-07T09:42:19.590Z,91.10
2019-02-07T09:44:59.150Z,90.80
2019-02-07T09:47:45.850Z,90.50
2019-02-07T09:50:41.891Z,90.30
2019-02-07T09:53:39.051Z,90.30
2019-02-07T09:56:24.690Z,90.20
2019-02-07T09:59:15.347Z,90.10
2019-02-07T10:02:06.846Z,89.30
2019-02-07T10:04:53.963Z,90.00
2019-02-07T10:07:46.514Z,90.20
2019-02-07T10:10:42.358Z,89.00
2019-02-07T10:13:47.322Z,86.50
2019-02-07T10:16:36.954Z,83.40
2019-02-07T10:19:22.741Z,82.60
2019-02-07T10:22:12.628Z,77.90
2019-02-07T10:25:09.202Z,77.90
2019-02-07T10:27:54.885Z,78.80
2019-02-07T10:30:40.124Z,77.70
2019-02-07T10:33:27.248Z,78.70
2019-02-07T10:36:25.898Z,80.40
2019-02-07T10:39:12.986Z,79.80
2019-02-07T10:41:58.726Z,78.40
2019-02-07T10:44:44.198Z,76.80
2019-02-07T10:47:24.614Z,75.30
2019-02-07T10:50:12.451Z,73.60
2019-02-07T10:52:59.018Z,72.90
2019-02-07T10:55:57.663Z,67.50
2019-02-07T10:58:50.498Z,64.20
2019-02-07T11:01:37.378Z,61.90
2019-02-07T11:04:36.940Z,61.50
2019-02-07T11:07:19.533Z,57.20
2019-02-07T11:10:05.726Z,56.30
2019-02-07T11:12:51.514Z,51.50
2019-02-07T11:15:43.429Z,46.10
2019-02-07T11:18:38.860Z,44.00
2019-02-07T11:21:38.880Z,43.20
2019-02-07T11:24:26.010Z,40.40
2019-02-07T11:27:27.434Z,42.00
2019-02-07T11:30:13.238Z,38.10
2019-02-07T11:33:04.651Z,38.20
2019-02-07T11:35:50.877Z,38.40
2019-02-07T11:38:39.183Z,37.00
2019-02-07T11:41:25.175Z,30.90
2019-02-07T11:44:07.818Z,29.40
2019-02-07T11:47:05.179Z,30.30
2019-02-07T11:49:51.365Z,28.70
2019-02-07T11:52:40.386Z,28.40
2019-02-07T11:55:27.823Z,26.60
2019-02-07T11:58:27.654Z,25.40
2019-02-07T12:01:20.034Z,23.80
2019-02-07T12:03:56.490Z,26.80
2019-02-07T12:06:38.130Z,24.70
2019-02-07T12:09:33.386Z,24.60
2019-02-07T12:12:22.878Z,23.70
2019-02-07T12:14:59.306Z,22.90
2019-02-07T12:18:08.188Z,21.80
2019-02-07T12:20:46.074Z,20.70
2019-02-07T12:23:26.770Z,19.30
2019-02-07T12:26:24.277Z,20.80
2019-02-07T12:29:09.628Z,20.80
2019-02-07T12:31:55.923Z,18.00
2019-02-07T12:34:33.662Z,18.90
2019-02-07T12:37:25.930Z,17.40
2019-02-07T12:40:18.655Z,17.10
2019-02-07T12:43:04.965Z,18.20
2019-02-07T12:45:51.264Z,16.90
2019-02-07T12:48:41.351Z,16.20
2019-02-07T12:51:35.937Z,15.40
2019-02-07T12:54:31.531Z,14.80
2019-02-07T12:57:12.516Z,16.00
2019-02-07T13:00:01.569Z,16.00
2019-02-07T13:02:41.232Z,15.90
2019-02-07T13:05:44.797Z,14.70
2019-02-07T13:08:25.373Z,14.00
2019-02-07T13:11:14.547Z,13.40
2019-02-07T13:13:59.833Z,13.50
2019-02-07T13:16:56.962Z,16.10
2019-02-07T13:19:57.894Z,13.10
2019-02-07T13:22:42.138Z,12.80
2019-02-07T13:25:28.456Z,11.80
2019-02-07T13:28:27.994Z,11.10
2019-02-07T13:31:25.012Z,11.10
2019-02-07T13:34:13.927Z,11.00
2019-02-07T13:36:54.462Z,7.40
2019-02-07T13:39:33.554Z,9.00
2019-02-07T13:42:15.146Z,7.50
2019-02-07T13:45:00.887Z,9.10
2019-02-07T13:47:56.858Z,6.80
2019-02-07T13:50:44.896Z,6.20
2019-02-07T13:53:33.150Z,7.80
2019-02-07T13:56:28.838Z,8.60
2019-02-07T13:59:08.363Z,7.00
2019-02-07T14:02:03.356Z,4.50
2019-02-07T14:04:43.818Z,5.40
2019-02-07T14:07:39.792Z,5.40
2019-02-07T14:10:16.950Z,5.30
2019-02-07T14:13:01.351Z,4.80
2019-02-07T14:16:07.430Z,4.80
2019-02-07T14:18:43.894Z,5.30
2019-02-07T14:21:34.703Z,4.80
2019-02-07T14:24:28.590Z,5.10
2019-02-07T14:27:31.776Z,5.10
2019-02-07T14:30:13.195Z,3.10
2019-02-07T14:32:54.134Z,2.90
2019-02-07T14:35:47.981Z,2.80
2019-02-07T14:38:41.754Z,2.70
2019-02-07T14:41:28.368Z,2.80
2019-02-07T14:44:28.054Z,4.10
2019-02-07T14:46:55.303Z,1.00
2019-02-07T14:49:22.571Z,1.00
2019-02-07T14:51:49.762Z,1.00
2019-02-07T14:54:16.992Z,1.00
2019-02-07T14:56:50.462Z,1.00
2019-02-07T14:59:18.806Z,1.00
2019-02-07T15:01:47.197Z,1.00
2019-02-07T15:04:15.486Z,1.00
2019-02-07T15:06:43.802Z,1.00
2019-02-07T15:09:16.894Z,1.00
2019-02-07T15:11:44.087Z,1.00
2019-02-07T15:14:12.352Z,1.00
2019-02-07T15:16:40.645Z,1.00
2019-02-07T15:19:08.958Z,1.00
2019-02-07T15:21:39.390Z,1.00
2019-02-07T15:24:08.446Z,1.00
2019-02-07T15:26:37.175Z,1.00
2019-02-07T15:29:05.682Z,1.00
2019-02-07T15:31:33.955Z,1.00
2019-02-07T15:34:05.742Z,1.00
2019-02-07T15:36:34.078Z,1.00
2019-02-07T15:39:06.068Z,1.00
2019-02-07T15:41:34.250Z,1.00
2019-02-07T15:44:03.558Z,1.00
2019-02-07T15:46:33.534Z,1.00
2019-02-07T15:49:01.647Z,1.00
2019-02-07T15:51:29.903Z,1.00
2019-02-07T15:53:58.078Z,1.00
2019-02-07T15:56:26.254Z,1.00
2019-02-07T15:59:08.388Z,1.00
2019-02-07T16:01:43.906Z,1.00
2019-02-07T16:04:21.306Z,1.00
2019-02-07T16:06:49.575Z,1.00
2019-02-07T16:09:17.801Z,1.00
2019-02-07T16:11:46.811Z,1.00
2019-02-07T16:14:17.802Z,1.00
2019-02-07T16:16:47.225Z,1.00
2019-02-07T16:19:15.897Z,1.00
2019-02-07T16:21:44.167Z,1.00
2019-02-07T16:24:12.554Z,1.00
2019-02-07T16:26:40.855Z,1.00
2019-02-07T16:29:10.086Z,1.00
2019-02-07T16:31:38.546Z,1.00
2019-02-07T16:34:06.930Z,1.00
2019-02-07T16:36:35.682Z,1.00
2019-02-07T16:39:07.375Z,1.00
2019-02-07T16:41:35.482Z,2.20
2019-02-07T16:44:04.275Z,2.60
2019-02-07T16:46:31.938Z,4.00
2019-02-07T16:49:00.426Z,7.00
2019-02-07T16:51:28.910Z,11.50
2019-02-07T16:53:57.187Z,13.30
2019-02-07T16:56:24.622Z,14.40
2019-02-07T16:58:53.143Z,14.50
2019-02-07T17:01:21.534Z,13.30
2019-02-07T17:03:49.834Z,13.70
2019-02-07T17:06:18.209Z,14.50
2019-02-07T17:08:46.330Z,13.10
2019-02-07T17:11:14.634Z,13.00
2019-02-07T17:13:42.682Z,12.90
2019-02-07T17:16:11.394Z,13.30
2019-02-07T17:18:39.642Z,12.80
2019-02-07T17:21:12.095Z,12.40
2019-02-07T17:23:38.022Z,11.20
2019-02-07T17:26:06.318Z,10.70
2019-02-07T17:28:34.506Z,10.60
2019-02-07T17:31:03.212Z,10.20
2019-02-07T17:33:31.543Z,10.60
2019-02-07T17:35:59.835Z,9.60
2019-02-07T17:38:28.129Z,9.20
2019-02-07T17:40:56.382Z,8.60
2019-02-07T17:43:23.557Z,8.60
2019-02-07T17:45:51.841Z,8.70
2019-02-07T17:48:21.474Z,7.80
2019-02-07T17:50:49.695Z,8.60
2019-02-07T17:53:17.963Z,7.70
2019-02-07T17:55:47.104Z,6.70
2019-02-07T17:58:15.726Z,6.30
2019-02-07T18:00:53.418Z,6.80
2019-02-07T18:03:21.265Z,7.30
2019-02-07T18:05:50.265Z,7.00
2019-02-07T18:08:18.181Z,7.90
2019-02-07T18:10:46.368Z,7.00
2019-02-07T18:13:15.302Z,6.90
2019-02-07T18:15:42.829Z,7.40
2019-02-07T18:18:11.649Z,7.00
2019-02-07T18:20:38.802Z,7.70
2019-02-07T18:23:07.284Z,7.20
2019-02-07T18:25:36.000Z,7.70
2019-02-07T18:28:06.389Z,7.30
2019-02-07T18:30:34.738Z,7.50
2019-02-07T18:33:03.478Z,8.30
2019-02-07T18:35:31.651Z,7.70
2019-02-07T18:38:00.417Z,8.00
2019-02-07T18:40:28.624Z,8.00
2019-02-07T18:42:58.718Z,9.00
2019-02-07T18:45:26.477Z,7.80
2019-02-07T18:47:53.945Z,8.10
2019-02-07T18:50:27.785Z,7.80
2019-02-07T18:52:55.194Z,7.50
2019-02-07T18:55:22.653Z,7.80
2019-02-07T18:57:51.506Z,7.70
2019-02-07T19:00:22.815Z,7.50
2019-02-07T19:02:51.908Z,7.60
2019-02-07T19:05:20.673Z,7.10
2019-02-07T19:07:49.074Z,7.00
2019-02-07T19:10:18.981Z,7.80
2019-02-07T19:12:48.407Z,7.90
2019-02-07T19:15:21.142Z,8.10
2019-02-07T19:17:48.710Z,8.30
2019-02-07T19:20:17.402Z,8.10
2019-02-07T19:22:45.858Z,7.80
2019-02-07T19:25:14.467Z,7.90
2019-02-07T19:27:42.897Z,8.10
2019-02-07T19:30:25.982Z,8.10
2019-02-07T19:32:54.110Z,8.50
2019-02-07T19:35:21.499Z,9.10
2019-02-07T19:37:48.644Z,8.60
2019-02-07T19:40:15.857Z,8.80
2019-02-07T19:42:43.045Z,9.20
2019-02-07T19:45:13.526Z,10.30
2019-02-07T19:47:41.354Z,10.90
2019-02-07T19:50:11.241Z,10.50
2019-02-07T19:52:39.736Z,10.90
2019-02-07T19:55:10.158Z,10.90
2019-02-07T19:57:37.327Z,11.20
2019-02-07T20:00:07.993Z,11.90
2019-02-07T20:02:35.147Z,12.60
2019-02-07T20:05:04.935Z,12.40
2019-02-07T20:07:33.146Z,12.30
2019-02-07T20:10:01.487Z,12.80
2019-02-07T20:12:32.657Z,13.00
2019-02-07T20:15:00.196Z,13.10
2019-02-07T20:17:28.039Z,13.00
2019-02-07T20:19:55.305Z,13.40
2019-02-07T20:22:23.402Z,13.50
2019-02-07T20:24:51.606Z,14.00
2019-02-07T20:27:19.806Z,14.00
2019-02-07T20:29:47.963Z,14.10
2019-02-07T20:32:16.166Z,14.00
2019-02-07T20:34:44.672Z,13.80
2019-02-07T20:37:13.129Z,14.60
2019-02-07T20:39:41.532Z,14.30
2019-02-07T20:42:10.048Z,14.50
2019-02-07T20:44:39.254Z,15.20
2019-02-07T20:47:08.125Z,15.30
2019-02-07T20:49:36.411Z,16.00
2019-02-07T20:52:04.804Z,16.10
2019-02-07T20:54:33.093Z,15.80
2019-02-07T20:57:02.307Z,15.80
2019-02-07T20:59:30.497Z,15.70
2019-02-07T21:01:58.668Z,16.60
2019-02-07T21:04:27.214Z,16.30
2019-02-07T21:06:55.671Z,17.20
2019-02-07T21:09:23.991Z,17.30
2019-02-07T21:11:52.379Z,17.40
2019-02-07T21:14:20.614Z,17.70
2019-02-07T21:16:49.010Z,17.60
2019-02-07T21:19:17.722Z,18.70
2019-02-07T21:21:47.594Z,18.80
2019-02-07T21:24:15.602Z,19.20
2019-02-07T21:26:43.463Z,19.80
2019-02-07T21:29:12.065Z,19.40
2019-02-07T21:31:41.094Z,19.60
2019-02-07T21:34:08.477Z,19.30
2019-02-07T21:36:37.394Z,19.20
2019-02-07T21:39:09.844Z,19.30
2019-02-07T21:41:38.411Z,19.50
2019-02-07T21:44:06.982Z,20.60
2019-02-07T21:46:35.582Z,20.20
2019-02-07T21:49:05.213Z,20.20
2019-02-07T21:51:34.105Z,20.20
2019-02-07T21:54:03.066Z,20.20
2019-02-07T21:56:31.482Z,20.40
2019-02-07T21:59:00.594Z,20.40
2019-02-07T22:01:30.904Z,20.20
2019-02-07T22:03:58.939Z,20.90
2019-02-07T22:06:27.007Z,21.40
2019-02-07T22:08:54.515Z,21.00
2019-02-07T22:11:23.065Z,20.40
2019-02-07T22:13:51.978Z,20.30
2019-02-07T22:16:19.655Z,20.80
2019-02-07T22:18:48.202Z,20.70
2019-02-07T22:21:17.526Z,21.80
2019-02-07T22:23:45.959Z,21.60
2019-02-07T22:26:15.715Z,22.30
2019-02-07T22:28:44.994Z,22.00
2019-02-07T22:31:13.695Z,22.20
2019-02-07T22:33:40.778Z,22.80
2019-02-07T22:36:09.295Z,22.50
2019-02-07T22:38:38.231Z,21.90
2019-02-07T22:41:07.314Z,22.30
2019-02-07T22:43:35.158Z,22.20
2019-02-07T22:46:03.762Z,22.50
2019-02-07T22:48:32.113Z,22.20
2019-02-07T22:51:00.506Z,22.10
2019-02-07T22:53:28.002Z,22.40
2019-02-07T22:55:57.502Z,22.90
2019-02-07T22:58:24.684Z,22.70
2019-02-07T23:01:16.313Z,22.50
2019-02-07T23:03:50.339Z,22.80
2019-02-07T23:06:18.633Z,23.10
2019-02-07T23:08:47.060Z,22.80
2019-02-07T23:11:15.269Z,23.20
2019-02-07T23:13:43.453Z,23.20
2019-02-07T23:16:12.099Z,23.20
2019-02-07T23:18:40.572Z,23.20
2019-02-07T23:21:08.756Z,23.50
2019-02-07T23:23:37.438Z,24.00
2019-02-07T23:26:06.334Z,24.20
2019-02-07T23:28:34.846Z,24.80
2019-02-07T23:31:05.291Z,25.00
2019-02-07T23:33:32.478Z,24.90
2019-02-07T23:36:01.143Z,25.30
2019-02-07T23:38:29.445Z,24.90
2019-02-07T23:40:58.475Z,24.60
2019-02-07T23:43:26.810Z,24.90
2019-02-07T23:45:54.990Z,24.00
2019-02-07T23:48:23.180Z,24.90
2019-02-07T23:50:51.438Z,25.50
2019-02-07T23:53:19.926Z,25.00
2019-02-07T23:55:48.147Z,25.70
2019-02-07T23:58:16.419Z,25.60
